Time;durP1;ratioP1;P1;durP2;ratioP2;P2;SDS_P1;SDS_P2;PMS_P1;PMS_P2;Temp;Humidity;BMP_temperature;BMP_pressure;BME280_temperature;BME280_humidity;BME280_pressure;Samples;Min_cycle;Max_cycle;Signal;HPM_P1;HPM_P2
2022/07/17 00:00:47;;;;;;;;;;;25.70;41.40;;;;;;2100890;28;923;-81
2022/07/17 00:01:48;;;;;;;;;;;25.70;41.40;;;;;;2100871;28;892;-81
2022/07/17 00:02:48;;;;;;;;;;;25.60;41.40;;;;;;2100278;28;1313;-81
2022/07/17 00:03:49;;;;;;;;;;;25.70;41.40;;;;;;2092061;28;1198;-81
2022/07/17 00:04:49;;;;;;;;;;;25.70;41.50;;;;;;2100095;28;1234;-80
2022/07/17 00:05:50;;;;;;;;;;;25.60;41.60;;;;;;2100295;28;1965;-81
2022/07/17 00:06:50;;;;;;;;;;;25.70;41.40;;;;;;2100952;28;875;-81
2022/07/17 00:07:50;;;;;;;;;;;25.70;41.40;;;;;;2100994;28;810;-81
2022/07/17 00:08:51;;;;;;;;;;;25.70;41.50;;;;;;2100211;28;1397;-81
2022/07/17 00:09:51;;;;;;;;;;;25.60;41.40;;;;;;2100257;28;1036;-80
2022/07/17 00:10:51;;;;;;;;;;;25.70;41.40;;;;;;2100261;28;1256;-80
2022/07/17 00:11:52;;;;;;;;;;;25.60;41.40;;;;;;2100185;28;870;-81
2022/07/17 00:12:52;;;;;;;;;;;25.70;41.40;;;;;;2100748;28;1036;-81
2022/07/17 00:13:53;;;;;;;;;;;25.70;41.40;;;;;;2100923;28;834;-81
2022/07/17 00:14:53;;;;;;;;;;;25.70;41.40;;;;;;2100258;28;1225;-81
2022/07/17 00:15:54;;;;;;;;;;;25.70;41.50;;;;;;2091980;28;1289;-81
2022/07/17 00:16:54;;;;;;;;;;;25.60;41.40;;;;;;2100420;28;936;-81
2022/07/17 00:17:54;;;;;;;;;;;25.70;41.40;;;;;;2100166;28;1240;-81
2022/07/17 00:18:55;;;;;;;;;;;25.70;41.40;;;;;;2100229;28;789;-81
2022/07/17 00:19:55;;;;;;;;;;;25.70;41.30;;;;;;2100076;28;1308;-81
2022/07/17 00:20:56;;;;;;;;;;;25.60;41.30;;;;;;2099987;28;1178;-81
2022/07/17 00:21:56;;;;;;;;;;;25.70;41.40;;;;;;2108667;28;825;-81
2022/07/17 00:22:57;;;;;;;;;;;25.70;41.50;;;;;;2099546;28;1362;-80
2022/07/17 00:23:58;;;;;;;;;;;25.70;41.50;;;;;;2100015;28;1251;-81
2022/07/17 00:24:58;;;;;;;;;;;25.70;41.70;;;;;;2100362;28;1175;-80
2022/07/17 00:25:58;;;;;;;;;;;25.60;41.70;;;;;;2099946;28;1902;-80
2022/07/17 00:26:59;;;;;;;;;;;25.70;41.60;;;;;;2091724;28;1622;-80
2022/07/17 00:27:59;;;;;;;;;;;25.70;41.80;;;;;;2100091;28;885;-80
2022/07/17 00:28:59;;;;;;;;;;;25.60;41.80;;;;;;2100129;28;1212;-80
2022/07/17 00:30:00;;;;;;;;;;;25.60;41.90;;;;;;2100091;28;830;-80
2022/07/17 00:31:00;;;;;;;;;;;25.60;41.60;;;;;;2100711;28;872;-80
2022/07/17 00:32:01;;;;;;;;;;;25.70;41.70;;;;;;2100750;28;838;-80
2022/07/17 00:33:02;;;;;;;;;;;25.70;41.60;;;;;;2099919;28;1144;-81
2022/07/17 00:34:03;;;;;;;;;;;25.60;41.80;;;;;;2091803;28;1231;-81
2022/07/17 00:35:04;;;;;;;;;;;25.70;41.30;;;;;;2100033;28;1239;-81
2022/07/17 00:36:04;;;;;;;;;;;25.60;41.50;;;;;;2100593;28;821;-80
2022/07/17 00:37:05;;;;;;;;;;;25.70;41.70;;;;;;2100692;28;861;-81
2022/07/17 00:38:06;;;;;;;;;;;25.60;41.60;;;;;;2100600;28;988;-81
2022/07/17 00:39:06;;;;;;;;;;;25.60;41.70;;;;;;2100008;28;1271;-81
2022/07/17 00:40:07;;;;;;;;;;;25.60;41.70;;;;;;2091696;28;1203;-81
2022/07/17 00:41:07;;;;;;;;;;;25.60;41.80;;;;;;2100072;28;790;-81
2022/07/17 00:42:07;;;;;;;;;;;25.60;41.70;;;;;;2100765;28;955;-80
2022/07/17 00:43:08;;;;;;;;;;;25.60;41.50;;;;;;2099770;28;1388;-81
2022/07/17 00:44:08;;;;;;;;;;;25.60;41.70;;;;;;2091586;28;1369;-80
2022/07/17 00:45:08;;;;;;;;;;;25.60;41.60;;;;;;2099934;28;1169;-80
2022/07/17 00:46:09;;;;;;;;;;;25.60;41.70;;;;;;2099765;28;1918;-80
2022/07/17 00:47:09;;;;;;;;;;;25.60;41.70;;;;;;2099832;28;1048;-81
2022/07/17 00:48:09;;;;;;;;;;;25.60;41.50;;;;;;2100102;28;1369;-80
2022/07/17 00:49:10;;;;;;;;;;;25.60;41.70;;;;;;2099938;28;1386;-81
2022/07/17 00:50:10;;;;;;;;;;;25.70;41.80;;;;;;2099792;28;1140;-81
2022/07/17 00:51:11;;;;;;;;;;;25.60;41.80;;;;;;2091636;28;1247;-81
2022/07/17 00:52:11;;;;;;;;;;;25.60;41.80;;;;;;2099906;28;1231;-81
2022/07/17 00:53:11;;;;;;;;;;;25.70;41.90;;;;;;2108275;28;884;-80
2022/07/17 00:54:12;;;;;;;;;;;25.60;41.80;;;;;;2099953;28;1332;-80
2022/07/17 00:55:12;;;;;;;;;;;25.60;41.80;;;;;;2099825;28;1403;-80
2022/07/17 00:56:12;;;;;;;;;;;25.70;41.80;;;;;;2108284;28;833;-81
2022/07/17 00:57:13;;;;;;;;;;;25.60;41.80;;;;;;2099813;28;1245;-80
2022/07/17 00:58:13;;;;;;;;;;;25.70;41.70;;;;;;2099860;28;1275;-80
2022/07/17 00:59:14;;;;;;;;;;;25.60;41.40;;;;;;2091503;28;1253;-80
2022/07/17 01:00:14;;;;;;;;;;;25.60;41.50;;;;;;2100120;28;853;-80
2022/07/17 01:01:14;;;;;;;;;;;25.60;41.50;;;;;;2099752;28;1245;-81
2022/07/17 01:02:15;;;;;;;;;;;25.60;41.50;;;;;;2091526;28;1296;-80
2022/07/17 01:03:15;;;;;;;;;;;25.60;41.40;;;;;;2099728;28;1032;-81
2022/07/17 01:04:16;;;;;;;;;;;25.60;41.40;;;;;;2100531;28;826;-80
2022/07/17 01:05:16;;;;;;;;;;;25.60;41.20;;;;;;2099797;28;1265;-81
2022/07/17 01:06:17;;;;;;;;;;;25.60;41.60;;;;;;2099808;28;1906;-81
2022/07/17 01:07:18;;;;;;;;;;;25.60;41.70;;;;;;2100549;28;872;-81
2022/07/17 01:08:18;;;;;;;;;;;25.60;41.40;;;;;;2100546;28;832;-80
2022/07/17 01:09:19;;;;;;;;;;;25.60;41.30;;;;;;2099674;28;1240;-80
2022/07/17 01:10:19;;;;;;;;;;;25.60;41.70;;;;;;2099786;28;880;-81
2022/07/17 01:11:20;;;;;;;;;;;25.60;41.30;;;;;;2099630;28;1229;-81
2022/07/17 01:12:20;;;;;;;;;;;25.70;41.40;;;;;;2099860;28;1073;-80
2022/07/17 01:13:21;;;;;;;;;;;25.70;41.50;;;;;;2099608;28;1226;-80
2022/07/17 01:14:21;;;;;;;;;;;25.60;41.40;;;;;;2091426;28;1241;-81
2022/07/17 01:15:23;;;;;;;;;;;25.60;41.30;;;;;;2099659;28;1266;-80
2022/07/17 01:16:24;;;;;;;;;;;25.60;41.40;;;;;;2108033;28;1194;-81
2022/07/17 01:17:24;;;;;;;;;;;25.70;41.30;;;;;;2099754;28;1280;-81
2022/07/17 01:18:24;;;;;;;;;;;25.70;41.70;;;;;;2099722;28;1074;-81
2022/07/17 01:19:25;;;;;;;;;;;25.70;41.40;;;;;;2099788;28;1335;-81
2022/07/17 01:20:25;;;;;;;;;;;25.60;41.70;;;;;;2091448;28;1257;-80
2022/07/17 01:21:25;;;;;;;;;;;25.60;41.60;;;;;;2099568;28;1289;-80
2022/07/17 01:22:26;;;;;;;;;;;25.60;41.50;;;;;;2099958;28;944;-81
2022/07/17 01:23:26;;;;;;;;;;;25.70;41.40;;;;;;2100386;28;1104;-80
2022/07/17 01:24:26;;;;;;;;;;;25.60;41.40;;;;;;2099820;28;1476;-81
2022/07/17 01:25:27;;;;;;;;;;;25.60;41.30;;;;;;2099705;28;1205;-81
2022/07/17 01:26:27;;;;;;;;;;;25.60;41.50;;;;;;2100291;28;1890;-81
2022/07/17 01:27:27;;;;;;;;;;;25.60;41.50;;;;;;2100373;28;908;-81
2022/07/17 01:28:30;;;;;;;;;;;25.70;41.40;;;;;;2100446;28;916;-81
2022/07/17 01:29:30;;;;;;;;;;;25.60;41.40;;;;;;2099551;28;1212;-80
2022/07/17 01:30:31;;;;;;;;;;;25.60;41.40;;;;;;2091304;28;1225;-81
2022/07/17 01:31:31;;;;;;;;;;;25.70;41.70;;;;;;2099632;28;1252;-81
2022/07/17 01:32:32;;;;;;;;;;;25.70;41.60;;;;;;2091342;28;1360;-81
2022/07/17 01:33:32;;;;;;;;;;;25.60;41.60;;;;;;2099754;28;972;-81
2022/07/17 01:34:33;;;;;;;;;;;25.70;41.70;;;;;;2100171;28;1173;-80
2022/07/17 01:35:33;;;;;;;;;;;25.70;41.80;;;;;;2099568;28;1277;-81
2022/07/17 01:36:33;;;;;;;;;;;25.70;41.80;;;;;;2091508;28;1226;-81
2022/07/17 01:37:34;;;;;;;;;;;25.70;41.70;;;;;;2099479;28;1250;-81
2022/07/17 01:38:34;;;;;;;;;;;25.60;41.60;;;;;;2091523;28;1398;-81
2022/07/17 01:39:52;;;;;;;;;;;25.70;41.70;;;;;;2099538;28;1348;-80
2022/07/17 01:40:53;;;;;;;;;;;25.60;42.00;;;;;;2099920;28;940;-81
2022/07/17 01:41:53;;;;;;;;;;;25.70;41.60;;;;;;2099755;28;1225;-81
2022/07/17 01:42:54;;;;;;;;;;;25.60;41.40;;;;;;2100035;28;919;-81
2022/07/17 01:43:54;;;;;;;;;;;25.70;41.80;;;;;;2099368;28;1260;-81
2022/07/17 01:44:56;;;;;;;;;;;25.60;41.80;;;;;;2091120;28;1223;-81
2022/07/17 01:45:56;;;;;;;;;;;25.70;41.90;;;;;;2099459;28;1951;-81
2022/07/17 01:46:57;;;;;;;;;;;25.70;41.30;;;;;;2099415;28;1364;-81
2022/07/17 01:47:57;;;;;;;;;;;25.60;42.00;;;;;;2091315;28;1284;-80
2022/07/17 01:48:57;;;;;;;;;;;25.60;41.90;;;;;;2099568;28;1030;-80
2022/07/17 01:49:58;;;;;;;;;;;25.70;41.90;;;;;;2099350;28;1249;-81
2022/07/17 01:50:58;;;;;;;;;;;25.60;42.00;;;;;;2091265;28;1284;-81
2022/07/17 01:51:59;;;;;;;;;;;25.60;41.50;;;;;;2091341;28;1257;-81
2022/07/17 01:53:00;;;;;;;;;;;25.60;41.70;;;;;;2091244;28;1219;-81
2022/07/17 01:54:00;;;;;;;;;;;25.60;41.70;;;;;;2091237;28;1253;-81
2022/07/17 01:55:00;;;;;;;;;;;25.60;41.70;;;;;;2099253;28;1257;-81
2022/07/17 01:56:01;;;;;;;;;;;25.60;41.40;;;;;;2091171;28;1225;-80
2022/07/17 01:57:01;;;;;;;;;;;25.60;41.80;;;;;;2091051;28;1248;-81
2022/07/17 01:58:01;;;;;;;;;;;25.70;41.70;;;;;;2099408;28;1382;-81
2022/07/17 01:59:02;;;;;;;;;;;25.60;41.80;;;;;;2091116;28;1395;-80
2022/07/17 02:00:02;;;;;;;;;;;25.60;41.90;;;;;;2099565;28;1032;-81
2022/07/17 02:01:03;;;;;;;;;;;25.60;41.80;;;;;;2099257;28;1251;-81
2022/07/17 02:02:04;;;;;;;;;;;25.70;41.80;;;;;;2091206;28;1265;-81
2022/07/17 02:03:05;;;;;;;;;;;25.60;42.10;;;;;;2099480;28;896;-81
2022/07/17 02:04:05;;;;;;;;;;;25.60;42.10;;;;;;2100062;28;834;-81
2022/07/17 02:05:05;;;;;;;;;;;25.60;41.90;;;;;;2099346;28;1396;-80
2022/07/17 02:06:06;;;;;;;;;;;25.60;42.10;;;;;;2099412;28;1886;-81
2022/07/17 02:07:06;;;;;;;;;;;25.60;42.00;;;;;;2099274;28;1244;-80
2022/07/17 02:08:06;;;;;;;;;;;25.60;41.80;;;;;;2090912;28;1195;-80
2022/07/17 02:09:07;;;;;;;;;;;25.60;42.00;;;;;;2091098;28;1249;-81
2022/07/17 02:10:07;;;;;;;;;;;25.60;42.00;;;;;;2091128;28;1242;-81
2022/07/17 02:11:08;;;;;;;;;;;25.60;42.10;;;;;;2099534;28;857;-80
2022/07/17 02:12:08;;;;;;;;;;;25.60;42.00;;;;;;2099204;28;1395;-81
2022/07/17 02:13:08;;;;;;;;;;;25.60;42.00;;;;;;2099313;28;1020;-81
2022/07/17 02:14:09;;;;;;;;;;;25.60;42.00;;;;;;2099195;28;1460;-81
2022/07/17 02:15:09;;;;;;;;;;;25.60;41.60;;;;;;2090964;28;1375;-81
2022/07/17 02:16:09;;;;;;;;;;;25.60;42.10;;;;;;2091025;28;1253;-81
2022/07/17 02:17:10;;;;;;;;;;;25.60;42.10;;;;;;2091087;28;1227;-81
2022/07/17 02:18:10;;;;;;;;;;;25.60;42.00;;;;;;2091103;28;1213;-81
2022/07/17 02:19:11;;;;;;;;;;;25.60;41.80;;;;;;2099377;28;821;-81
2022/07/17 02:20:11;;;;;;;;;;;25.60;41.60;;;;;;2099331;28;1249;-81
2022/07/17 02:21:12;;;;;;;;;;;25.60;41.60;;;;;;2099310;28;868;-81
2022/07/17 02:22:12;;;;;;;;;;;25.60;41.60;;;;;;2099274;28;1257;-81
2022/07/17 02:23:13;;;;;;;;;;;25.60;41.70;;;;;;2091097;28;1364;-81
2022/07/17 02:24:13;;;;;;;;;;;25.60;42.00;;;;;;2090987;28;1455;-81
2022/07/17 02:25:13;;;;;;;;;;;25.60;41.70;;;;;;2091016;28;1396;-81
2022/07/17 02:26:14;;;;;;;;;;;25.60;41.90;;;;;;2090910;28;1898;-80
2022/07/17 02:27:14;;;;;;;;;;;25.60;42.10;;;;;;2099500;28;813;-80
2022/07/17 02:28:14;;;;;;;;;;;25.60;41.90;;;;;;2100123;28;979;-80
2022/07/17 02:29:15;;;;;;;;;;;25.60;41.80;;;;;;2099405;28;1223;-81
2022/07/17 02:30:15;;;;;;;;;;;25.60;42.10;;;;;;2091140;28;1246;-80
2022/07/17 02:31:15;;;;;;;;;;;25.60;41.90;;;;;;2099213;28;1067;-81
2022/07/17 02:32:16;;;;;;;;;;;25.60;41.90;;;;;;2099344;28;1370;-81
2022/07/17 02:33:16;;;;;;;;;;;25.60;41.90;;;;;;2099233;28;956;-81
2022/07/17 02:34:17;;;;;;;;;;;25.60;41.80;;;;;;2099148;28;1206;-81
2022/07/17 02:35:17;;;;;;;;;;;25.60;41.90;;;;;;2099078;28;1272;-80
2022/07/17 02:36:17;;;;;;;;;;;25.60;41.80;;;;;;2107721;28;821;-81
2022/07/17 02:37:18;;;;;;;;;;;25.60;42.10;;;;;;2099229;28;1388;-81
2022/07/17 02:38:18;;;;;;;;;;;25.60;42.00;;;;;;2099363;28;1348;-81
2022/07/17 02:39:18;;;;;;;;;;;25.60;42.00;;;;;;2091050;28;1285;-81
2022/07/17 02:40:19;;;;;;;;;;;25.60;42.10;;;;;;2099230;28;1198;-81
2022/07/17 02:41:19;;;;;;;;;;;25.60;42.00;;;;;;2107739;28;778;-81
2022/07/17 02:42:19;;;;;;;;;;;25.70;42.20;;;;;;2099979;28;1015;-81
2022/07/17 02:43:20;;;;;;;;;;;25.60;42.10;;;;;;2099312;28;1253;-81
2022/07/17 02:44:20;;;;;;;;;;;25.60;41.80;;;;;;2090998;28;1394;-80
2022/07/17 02:45:24;;;;;;;;;;;25.60;42.20;;;;;;2099200;28;1279;-80
2022/07/17 02:46:24;;;;;;;;;;;25.60;41.80;;;;;;2100140;28;1898;-81
2022/07/17 02:47:25;;;;;;;;;;;25.60;42.10;;;;;;2100792;28;1249;-81
2022/07/17 02:48:25;;;;;;;;;;;25.60;42.00;;;;;;2101041;28;936;-81
2022/07/17 02:49:25;;;;;;;;;;;25.60;42.10;;;;;;2100896;28;1408;-80
2022/07/17 02:50:26;;;;;;;;;;;25.70;42.00;;;;;;2101075;28;838;-80
2022/07/17 02:51:27;;;;;;;;;;;25.60;42.20;;;;;;2101490;28;841;-81
2022/07/17 02:52:27;;;;;;;;;;;25.60;42.20;;;;;;2100865;28;1278;-81
2022/07/17 02:53:28;;;;;;;;;;;25.60;42.10;;;;;;2092411;28;1266;-81
2022/07/17 02:54:28;;;;;;;;;;;25.60;42.30;;;;;;2100837;28;825;-80
2022/07/17 02:55:28;;;;;;;;;;;25.60;42.20;;;;;;2100740;28;1299;-81
2022/07/17 02:56:29;;;;;;;;;;;25.70;42.30;;;;;;2100784;28;810;-81
2022/07/17 02:57:29;;;;;;;;;;;25.60;42.10;;;;;;2101422;28;1079;-81
2022/07/17 02:58:29;;;;;;;;;;;25.70;42.00;;;;;;2100762;28;1265;-81
2022/07/17 02:59:30;;;;;;;;;;;25.60;42.40;;;;;;2092452;28;1402;-81
2022/07/17 03:00:30;;;;;;;;;;;25.60;42.30;;;;;;2100754;28;1359;-81
2022/07/17 03:01:30;;;;;;;;;;;25.60;42.40;;;;;;2092503;28;1258;-81
2022/07/17 03:02:31;;;;;;;;;;;25.60;42.40;;;;;;2100758;28;1028;-81
2022/07/17 03:03:31;;;;;;;;;;;25.60;42.30;;;;;;2100899;28;1240;-81
2022/07/17 03:04:32;;;;;;;;;;;25.60;42.20;;;;;;2092490;28;1207;-81
2022/07/17 03:05:32;;;;;;;;;;;25.60;42.30;;;;;;2092333;28;1374;-81
2022/07/17 03:06:32;;;;;;;;;;;25.60;42.30;;;;;;2092195;28;1886;-81
2022/07/17 03:07:33;;;;;;;;;;;25.60;42.20;;;;;;2100886;28;959;-81
2022/07/17 03:08:33;;;;;;;;;;;25.60;42.10;;;;;;2101352;28;789;-81
2022/07/17 03:09:33;;;;;;;;;;;25.60;42.30;;;;;;2101278;28;909;-81
2022/07/17 03:10:34;;;;;;;;;;;25.60;41.90;;;;;;2100642;28;1139;-81
2022/07/17 03:11:34;;;;;;;;;;;25.60;42.00;;;;;;2092587;28;1368;-81
2022/07/17 03:12:35;;;;;;;;;;;25.60;42.20;;;;;;2100721;28;1386;-81
2022/07/17 03:13:35;;;;;;;;;;;25.70;42.10;;;;;;2100880;28;916;-81
2022/07/17 03:14:35;;;;;;;;;;;25.60;42.20;;;;;;2101213;28;1283;-80
2022/07/17 03:15:36;;;;;;;;;;;25.60;42.30;;;;;;2101170;28;806;-80
2022/07/17 03:16:36;;;;;;;;;;;25.60;42.20;;;;;;2101182;28;920;-81
2022/07/17 03:17:37;;;;;;;;;;;25.70;42.40;;;;;;2101248;28;836;-80
2022/07/17 03:18:37;;;;;;;;;;;25.60;42.30;;;;;;2101193;28;913;-81
2022/07/17 03:19:37;;;;;;;;;;;25.60;42.10;;;;;;2100598;28;1333;-81
2022/07/17 03:20:38;;;;;;;;;;;25.60;42.10;;;;;;2100705;28;870;-81
2022/07/17 03:21:38;;;;;;;;;;;25.60;42.10;;;;;;2101231;28;953;-81
2022/07/17 03:22:39;;;;;;;;;;;25.60;42.20;;;;;;2101119;28;1137;-81
2022/07/17 03:23:39;;;;;;;;;;;25.60;42.10;;;;;;2100532;28;1387;-81
2022/07/17 03:24:39;;;;;;;;;;;25.70;42.30;;;;;;2092219;28;1256;-80
2022/07/17 03:25:40;;;;;;;;;;;25.60;42.30;;;;;;2100444;28;1336;-81
2022/07/17 03:26:40;;;;;;;;;;;25.60;42.50;;;;;;2100707;28;1023;-81
2022/07/17 03:27:40;;;;;;;;;;;25.60;42.40;;;;;;2101360;28;919;-81
2022/07/17 03:28:41;;;;;;;;;;;25.60;42.20;;;;;;2100491;28;1241;-81
2022/07/17 03:29:41;;;;;;;;;;;25.60;42.30;;;;;;2092212;28;1269;-81
2022/07/17 03:30:42;;;;;;;;;;;25.60;42.10;;;;;;2100471;28;1248;-80
2022/07/17 03:31:42;;;;;;;;;;;25.60;42.40;;;;;;2092355;28;1266;-81
2022/07/17 03:32:43;;;;;;;;;;;25.70;42.40;;;;;;2100585;28;1254;-81
2022/07/17 03:33:43;;;;;;;;;;;25.60;42.30;;;;;;2092294;28;1245;-80
2022/07/17 03:34:44;;;;;;;;;;;25.60;42.40;;;;;;2100539;28;1157;-80
2022/07/17 03:35:44;;;;;;;;;;;25.60;42.10;;;;;;2101094;28;1007;-81
2022/07/17 03:36:44;;;;;;;;;;;25.60;42.40;;;;;;2100531;28;1269;-81
2022/07/17 03:37:45;;;;;;;;;;;25.70;42.50;;;;;;2092257;28;1237;-81
2022/07/17 03:38:45;;;;;;;;;;;25.60;42.30;;;;;;2100630;28;758;-81
2022/07/17 03:39:45;;;;;;;;;;;25.60;42.40;;;;;;2100919;28;1028;-81
2022/07/17 03:40:46;;;;;;;;;;;25.70;42.40;;;;;;2100419;28;1261;-81
2022/07/17 03:41:46;;;;;;;;;;;25.70;42.40;;;;;;2092149;28;1254;-81
2022/07/17 03:42:46;;;;;;;;;;;25.60;42.10;;;;;;2100334;28;1210;-81
2022/07/17 03:43:47;;;;;;;;;;;25.60;42.50;;;;;;2100622;28;805;-81
2022/07/17 03:44:47;;;;;;;;;;;25.60;42.20;;;;;;2100279;28;1203;-80
2022/07/17 03:45:48;;;;;;;;;;;25.70;42.40;;;;;;2100395;28;1906;-81
2022/07/17 03:46:48;;;;;;;;;;;25.60;42.10;;;;;;2100491;28;1225;-81
2022/07/17 03:47:48;;;;;;;;;;;25.70;42.50;;;;;;2092019;28;1455;-81
2022/07/17 03:48:49;;;;;;;;;;;25.60;42.40;;;;;;2092103;28;1192;-81
2022/07/17 03:49:49;;;;;;;;;;;25.60;42.50;;;;;;2100450;28;932;-81
2022/07/17 03:50:49;;;;;;;;;;;25.60;42.50;;;;;;2100274;28;1197;-81
2022/07/17 03:51:50;;;;;;;;;;;25.60;42.60;;;;;;2092187;28;1254;-81
2022/07/17 03:52:50;;;;;;;;;;;25.60;42.40;;;;;;2100471;28;952;-81
2022/07/17 03:53:50;;;;;;;;;;;25.60;42.60;;;;;;2100347;28;1296;-81
2022/07/17 03:54:51;;;;;;;;;;;25.60;42.40;;;;;;2100302;28;1222;-81
2022/07/17 03:55:51;;;;;;;;;;;25.60;42.50;;;;;;2108856;28;1083;-80
2022/07/17 03:56:52;;;;;;;;;;;25.60;42.40;;;;;;2100468;28;1206;-81
2022/07/17 03:57:52;;;;;;;;;;;25.60;42.60;;;;;;2099337;28;1432;-81
2022/07/17 03:58:52;;;;;;;;;;;25.60;42.50;;;;;;2100028;28;864;-80
2022/07/17 03:59:53;;;;;;;;;;;25.60;42.60;;;;;;2100925;28;1027;-81
2022/07/17 04:00:54;;;;;;;;;;;25.60;42.60;;;;;;2100842;28;869;-81
2022/07/17 04:01:54;;;;;;;;;;;25.60;42.40;;;;;;2100343;28;1225;-81
2022/07/17 04:02:55;;;;;;;;;;;25.70;42.60;;;;;;2092228;28;1222;-81
2022/07/17 04:03:55;;;;;;;;;;;25.60;42.60;;;;;;2100352;28;778;-81
2022/07/17 04:04:55;;;;;;;;;;;25.60;42.30;;;;;;2100202;28;1459;-81
2022/07/17 04:05:56;;;;;;;;;;;25.60;42.30;;;;;;2100253;28;1953;-81
2022/07/17 04:06:56;;;;;;;;;;;25.60;42.30;;;;;;2100323;28;1253;-81
2022/07/17 04:07:57;;;;;;;;;;;25.60;42.60;;;;;;2100410;28;1369;-81
2022/07/17 04:08:57;;;;;;;;;;;25.60;42.50;;;;;;2100276;28;1157;-81
2022/07/17 04:09:57;;;;;;;;;;;25.60;42.60;;;;;;2100318;28;1048;-81
2022/07/17 04:10:58;;;;;;;;;;;25.60;42.60;;;;;;2100936;28;903;-80
2022/07/17 04:11:58;;;;;;;;;;;25.60;42.30;;;;;;2100763;28;1079;-81
2022/07/17 04:12:59;;;;;;;;;;;25.60;42.50;;;;;;2100682;28;936;-81
2022/07/17 04:13:59;;;;;;;;;;;25.60;42.50;;;;;;2100172;28;1175;-81
2022/07/17 04:15:00;;;;;;;;;;;25.60;42.50;;;;;;2100335;28;1149;-81
2022/07/17 04:16:00;;;;;;;;;;;25.60;42.70;;;;;;2100198;28;1345;-81
2022/07/17 04:17:01;;;;;;;;;;;25.60;42.60;;;;;;2100387;28;889;-81
2022/07/17 04:18:01;;;;;;;;;;;25.60;42.70;;;;;;2100264;28;1147;-81
2022/07/17 04:19:01;;;;;;;;;;;25.60;42.60;;;;;;2091770;28;1273;-80
2022/07/17 04:20:02;;;;;;;;;;;25.60;42.50;;;;;;2091995;28;1330;-81
2022/07/17 04:21:02;;;;;;;;;;;25.60;42.60;;;;;;2100169;28;909;-80
2022/07/17 04:22:02;;;;;;;;;;;25.60;42.60;;;;;;2100839;28;1027;-81
2022/07/17 04:23:04;;;;;;;;;;;25.60;42.80;;;;;;2100805;28;992;-81
2022/07/17 04:24:05;;;;;;;;;;;25.60;42.70;;;;;;2100143;28;1416;-81
2022/07/17 04:25:05;;;;;;;;;;;25.60;42.70;;;;;;2091777;28;1352;-81
2022/07/17 04:26:08;;;;;;;;;;;25.70;42.70;;;;;;2100047;28;1969;-81
2022/07/17 04:27:09;;;;;;;;;;;25.60;42.70;;;;;;2092189;28;1244;-81
2022/07/17 04:28:09;;;;;;;;;;;25.60;42.60;;;;;;2091701;28;1280;-81
2022/07/17 04:29:09;;;;;;;;;;;25.60;42.70;;;;;;2100127;28;1355;-81
2022/07/17 04:30:10;;;;;;;;;;;25.70;42.70;;;;;;2091932;28;1353;-81
2022/07/17 04:31:10;;;;;;;;;;;25.60;42.80;;;;;;2100033;28;1364;-81
2022/07/17 04:32:10;;;;;;;;;;;25.70;42.60;;;;;;2100171;28;1066;-80
2022/07/17 04:33:11;;;;;;;;;;;25.60;42.70;;;;;;2100000;28;1230;-80
2022/07/17 04:34:11;;;;;;;;;;;25.70;42.70;;;;;;2100142;28;1222;-80
2022/07/17 04:35:11;;;;;;;;;;;25.70;42.70;;;;;;2108130;28;1295;-80
2022/07/17 04:36:12;;;;;;;;;;;25.60;42.70;;;;;;2091890;28;1316;-80
2022/07/17 04:37:12;;;;;;;;;;;25.60;42.70;;;;;;2100075;28;1279;-80
2022/07/17 04:38:13;;;;;;;;;;;25.70;42.70;;;;;;2100232;28;940;-81
2022/07/17 04:39:13;;;;;;;;;;;25.60;42.60;;;;;;2100139;28;1262;-81
2022/07/17 04:40:13;;;;;;;;;;;25.70;42.60;;;;;;2100133;28;877;-81
2022/07/17 04:41:14;;;;;;;;;;;25.60;42.70;;;;;;2100165;28;1253;-81
2022/07/17 04:42:14;;;;;;;;;;;25.70;42.60;;;;;;2091849;28;1250;-81
2022/07/17 04:43:14;;;;;;;;;;;25.70;42.70;;;;;;2091687;28;1373;-80
2022/07/17 04:44:15;;;;;;;;;;;25.70;42.70;;;;;;2091850;28;1236;-80
2022/07/17 04:45:16;;;;;;;;;;;25.70;42.60;;;;;;2091675;28;1324;-80
2022/07/17 04:46:16;;;;;;;;;;;25.60;42.70;;;;;;2099943;28;1951;-81
2022/07/17 04:47:16;;;;;;;;;;;25.70;42.50;;;;;;2100644;28;852;-81
2022/07/17 04:48:17;;;;;;;;;;;25.70;42.60;;;;;;2100649;28;880;-81
2022/07/17 04:49:17;;;;;;;;;;;25.60;42.70;;;;;;2099971;28;1370;-80
2022/07/17 04:50:18;;;;;;;;;;;25.70;42.70;;;;;;2099832;28;1044;-79
2022/07/17 04:51:18;;;;;;;;;;;25.70;42.60;;;;;;2099803;28;1376;-80
2022/07/17 04:52:18;;;;;;;;;;;25.70;42.70;;;;;;2100013;28;1043;-80
2022/07/17 04:53:19;;;;;;;;;;;25.70;42.70;;;;;;2099724;28;1333;-80
2022/07/17 04:54:19;;;;;;;;;;;25.70;42.80;;;;;;2091558;28;1269;-79
2022/07/17 04:55:20;;;;;;;;;;;25.70;43.00;;;;;;2099906;28;1165;-80
2022/07/17 04:56:20;;;;;;;;;;;25.70;43.30;;;;;;2108290;28;1291;-81
2022/07/17 04:57:21;;;;;;;;;;;25.70;42.40;;;;;;2108399;28;869;-81
2022/07/17 04:58:21;;;;;;;;;;;25.70;42.80;;;;;;2099723;28;1386;-80
2022/07/17 04:59:22;;;;;;;;;;;25.70;42.80;;;;;;2099989;28;864;-80
2022/07/17 05:00:22;;;;;;;;;;;25.70;43.40;;;;;;2099775;28;1226;-80
2022/07/17 05:01:23;;;;;;;;;;;25.70;43.40;;;;;;2100209;28;979;-83
2022/07/17 05:02:23;;;;;;;;;;;25.80;43.90;;;;;;2100589;28;920;-81
2022/07/17 05:03:24;;;;;;;;;;;25.80;43.20;;;;;;2100538;28;1032;-84
2022/07/17 05:04:25;;;;;;;;;;;25.80;43.40;;;;;;2100130;28;1612;-80
2022/07/17 05:05:25;;;;;;;;;;;25.80;43.70;;;;;;2091620;28;1374;-81
2022/07/17 05:06:25;;;;;;;;;;;25.80;44.20;;;;;;2099827;28;1960;-81
2022/07/17 05:07:26;;;;;;;;;;;25.90;44.30;;;;;;2100145;28;1176;-82
2022/07/17 05:08:26;;;;;;;;;;;25.90;44.40;;;;;;2099836;28;885;-79
2022/07/17 05:09:27;;;;;;;;;;;25.90;44.20;;;;;;2099221;28;1243;-82
2022/07/17 05:10:27;;;;;;;;;;;25.90;44.10;;;;;;2099687;28;1290;-79
2022/07/17 05:11:27;;;;;;;;;;;25.90;44.00;;;;;;2099856;28;1232;-82
2022/07/17 05:12:28;;;;;;;;;;;25.90;44.00;;;;;;2100041;28;896;-80
2022/07/17 05:13:28;;;;;;;;;;;25.90;43.80;;;;;;2099695;28;1357;-80
2022/07/17 05:14:30;;;;;;;;;;;25.90;44.00;;;;;;2091568;28;1357;-83
2022/07/17 05:15:30;;;;;;;;;;;25.90;43.90;;;;;;2099647;28;1243;-80
2022/07/17 05:16:31;;;;;;;;;;;25.90;45.00;;;;;;2099808;28;930;-80
2022/07/17 05:17:31;;;;;;;;;;;25.90;45.10;;;;;;2100358;28;850;-80
2022/07/17 05:18:32;;;;;;;;;;;25.90;44.30;;;;;;2100387;28;870;-80
2022/07/17 05:19:32;;;;;;;;;;;25.90;44.70;;;;;;2099821;28;1260;-80
2022/07/17 05:20:32;;;;;;;;;;;25.80;44.70;;;;;;2091616;28;1183;-80
2022/07/17 05:21:33;;;;;;;;;;;25.90;44.20;;;;;;2099698;28;995;-80
2022/07/17 05:22:33;;;;;;;;;;;25.80;44.20;;;;;;2099563;28;1168;-80
2022/07/17 05:23:34;;;;;;;;;;;25.80;44.10;;;;;;2099845;28;956;-80
2022/07/17 05:24:34;;;;;;;;;;;25.80;44.30;;;;;;2099675;28;1262;-79
2022/07/17 05:25:34;;;;;;;;;;;25.80;44.10;;;;;;2099615;28;1240;-80
2022/07/17 05:26:35;;;;;;;;;;;25.80;44.40;;;;;;2107991;28;1898;-80
2022/07/17 05:27:35;;;;;;;;;;;25.80;44.30;;;;;;2100495;28;857;-79
2022/07/17 05:28:35;;;;;;;;;;;25.80;44.80;;;;;;2100249;28;857;-80
2022/07/17 05:29:36;;;;;;;;;;;25.80;44.10;;;;;;2100126;28;1015;-80
2022/07/17 05:30:36;;;;;;;;;;;25.80;44.40;;;;;;2100216;28;810;-80
2022/07/17 05:31:37;;;;;;;;;;;25.80;44.40;;;;;;2099520;28;1242;-80
2022/07/17 05:32:37;;;;;;;;;;;25.80;44.30;;;;;;2091346;28;1241;-80
2022/07/17 05:33:37;;;;;;;;;;;25.80;44.80;;;;;;2099690;28;1008;-80
2022/07/17 05:34:38;;;;;;;;;;;25.80;44.30;;;;;;2100322;28;1268;-80
2022/07/17 05:35:38;;;;;;;;;;;25.80;44.40;;;;;;2100216;28;1003;-80
2022/07/17 05:36:38;;;;;;;;;;;25.80;44.40;;;;;;2099403;28;1249;-80
2022/07/17 05:37:39;;;;;;;;;;;25.80;44.30;;;;;;2091318;28;1445;-80
2022/07/17 05:38:39;;;;;;;;;;;25.80;44.40;;;;;;2099787;28;1387;-80
2022/07/17 05:39:40;;;;;;;;;;;25.80;44.80;;;;;;2091121;28;1252;-80
2022/07/17 05:40:40;;;;;;;;;;;25.80;44.60;;;;;;2099615;28;1234;-80
2022/07/17 05:41:40;;;;;;;;;;;25.80;45.00;;;;;;2099729;28;868;-80
2022/07/17 05:42:41;;;;;;;;;;;25.80;44.90;;;;;;2099614;28;1164;-80
2022/07/17 05:43:41;;;;;;;;;;;25.80;44.70;;;;;;2099613;28;880;-80
2022/07/17 05:44:41;;;;;;;;;;;25.80;44.70;;;;;;2100213;28;1181;-80
2022/07/17 05:45:42;;;;;;;;;;;25.80;44.90;;;;;;2100110;28;837;-80
2022/07/17 05:46:42;;;;;;;;;;;25.80;44.90;;;;;;2099322;28;1910;-80
2022/07/17 05:47:42;;;;;;;;;;;25.80;44.80;;;;;;2099559;28;857;-80
2022/07/17 05:48:43;;;;;;;;;;;25.80;44.50;;;;;;2100041;28;1210;-80
2022/07/17 05:49:43;;;;;;;;;;;25.80;44.70;;;;;;2100230;28;964;-80
2022/07/17 05:50:44;;;;;;;;;;;25.80;44.70;;;;;;2099630;28;993;-80
2022/07/17 05:51:44;;;;;;;;;;;25.80;45.00;;;;;;2100101;28;1007;-80
2022/07/17 05:52:45;;;;;;;;;;;25.80;44.90;;;;;;2099471;28;1338;-80
2022/07/17 05:53:45;;;;;;;;;;;25.80;44.80;;;;;;2091135;28;1398;-80
2022/07/17 05:54:45;;;;;;;;;;;25.80;44.50;;;;;;2099454;28;1177;-80
2022/07/17 05:55:46;;;;;;;;;;;25.80;45.00;;;;;;2099464;28;1193;-80
2022/07/17 05:56:47;;;;;;;;;;;25.80;44.90;;;;;;2099459;28;921;-80
2022/07/17 05:57:47;;;;;;;;;;;25.80;45.00;;;;;;2099992;28;889;-80
2022/07/17 05:58:47;;;;;;;;;;;25.80;44.70;;;;;;2099451;28;1304;-80